Time;durP1;ratioP1;P1;durP2;ratioP2;P2;SDS_P1;SDS_P2;PMS_P1;PMS_P2;Temp;Humidity;BMP_temperature;BMP_pressure;BME280_temperature;BME280_humidity;BME280_pressure;Samples;Min_cycle;Max_cycle;Signal;HPM_P1;HPM_P2
2022/04/10 00:00:55;;;;;;;;;32.75;32.50;;;;;6.16;62.26;101503.34;5007732;28;45181;-83
2022/04/10 00:03:22;;;;;;;;;29.50;29.50;;;;;6.24;62.38;101524.69;5007168;28;45633;-83
2022/04/10 00:05:48;;;;;;;;;28.00;25.25;;;;;6.30;62.52;101538.16;5006667;28;45611;-83
2022/04/10 00:08:13;;;;;;;;;33.25;29.25;;;;;6.31;62.60;101553.03;5007982;28;44992;-83
2022/04/10 00:10:39;;;;;;;;;35.00;31.67;;;;;6.21;62.44;101532.34;4988677;28;45399;-84
2022/04/10 00:13:04;;;;;;;;;32.50;28.50;;;;;6.07;62.41;101507.97;5007520;28;45392;-84
2022/04/10 00:15:29;;;;;;;;;32.67;31.67;;;;;6.19;62.36;101529.63;5005999;28;45059;-83
2022/04/10 00:17:55;;;;;;;;;36.50;33.00;;;;;6.16;62.51;101534.66;5007038;28;45037;-84
2022/04/10 00:20:20;;;;;;;;;32.75;32.75;;;;;6.00;62.86;101500.53;5007108;28;45082;-83
2022/04/10 00:22:48;;;;;;;;;31.25;28.25;;;;;6.19;62.57;101539.16;5002702;28;45297;-84
2022/04/10 00:25:16;;;;;;;;;33.75;32.50;;;;;5.91;62.83;101505.13;4998432;28;45150;-83
2022/04/10 00:27:43;;;;;;;;;32.75;27.25;;;;;5.81;63.09;101476.63;4993672;28;45125;-83
2022/04/10 00:30:10;;;;;;;;;26.25;25.00;;;;;6.08;62.99;101537.56;5010727;28;45384;-83
2022/04/10 00:32:36;;;;;;;;;33.25;32.00;;;;;5.80;62.75;101496.59;4991780;28;46005;-84
2022/04/10 00:35:02;;;;;;;;;32.00;31.50;;;;;5.89;62.91;101514.56;5010178;28;45311;-83
2022/04/10 00:37:27;;;;;;;;;30.75;29.25;;;;;5.90;63.01;101513.75;5010362;28;45169;-83
2022/04/10 00:39:53;;;;;;;;;31.00;29.00;;;;;6.03;63.13;101539.88;5009836;28;45103;-84
2022/04/10 00:42:19;;;;;;;;;30.50;28.00;;;;;5.78;63.11;101495.59;5010388;28;45878;-83
2022/04/10 00:44:45;;;;;;;;;33.00;31.25;;;;;5.95;62.90;101522.81;5010007;28;45058;-82
2022/04/10 00:47:10;;;;;;;;;32.25;31.25;;;;;5.93;63.15;101521.81;5010380;28;45233;-81
2022/04/10 00:49:39;;;;;;;;;30.75;29.00;;;;;5.54;63.14;101460.09;5004059;28;45271;-84
2022/04/10 00:52:09;;;;;;;;;32.00;29.50;;;;;5.89;63.54;101535.44;5008837;28;45342;-84
2022/04/10 00:54:35;;;;;;;;;27.50;27.00;;;;;5.68;63.40;101509.75;5008143;28;45237;-80
2022/04/10 00:57:02;;;;;;;;;30.50;28.50;;;;;5.78;63.62;101541.66;5014111;28;45366;-83
2022/04/10 00:59:29;;;;;;;;;28.00;26.75;;;;;5.46;63.77;101497.75;5017410;28;45365;-82
2022/04/10 01:01:54;;;;;;;;;30.00;28.75;;;;;5.53;63.64;101523.47;5008179;28;45783;-82
2022/04/10 01:04:20;;;;;;;;;30.75;28.75;;;;;5.37;63.88;101501.59;5004578;28;45199;-83
2022/04/10 01:06:48;;;;;;;;;32.00;30.00;;;;;5.50;64.05;101518.94;4999454;28;45018;-83
2022/04/10 01:09:14;;;;;;;;;32.00;31.00;;;;;5.61;64.15;101545.72;5000931;28;45378;-83
2022/04/10 01:11:39;;;;;;;;;31.75;29.75;;;;;5.46;63.87;101526.44;4984936;28;47468;-83
2022/04/10 01:14:05;;;;;;;;;28.75;28.25;;;;;5.35;64.03;101507.47;4991024;28;45142;-83
2022/04/10 01:16:31;;;;;;;;;29.00;27.00;;;;;5.36;63.99;101530.13;4997717;28;45237;-85
2022/04/10 01:18:57;;;;;;;;;27.25;26.00;;;;;5.33;64.34;101528.22;4982110;28;45306;-84
2022/04/10 01:21:27;;;;;;;;;28.50;27.00;;;;;5.20;64.51;101503.84;4991044;28;47973;-84
2022/04/10 01:23:53;;;;;;;;;34.75;30.50;;;;;5.40;64.61;101547.78;5001724;28;45436;-83
2022/04/10 01:26:19;;;;;;;;;30.75;30.00;;;;;5.08;64.58;101491.78;4999747;28;45069;-83
2022/04/10 01:28:55;;;;;;;;;30.00;27.75;;;;;5.14;64.48;101504.31;4996427;28;45417;-85
2022/04/10 01:31:20;;;;;;;;;29.00;27.50;;;;;5.32;64.24;101541.13;5010739;28;45347;-83
2022/04/10 01:33:46;;;;;;;;;26.33;24.33;;;;;5.23;64.69;101530.13;5010552;28;45869;-85
2022/04/10 01:36:11;;;;;;;;;34.75;29.25;;;;;4.98;64.34;101491.06;4990221;28;45392;-83
2022/04/10 01:38:38;;;;;;;;;25.75;25.25;;;;;4.95;64.58;101491.72;4990445;28;45174;-83
2022/04/10 01:41:03;;;;;;;;;32.00;28.75;;;;;5.03;64.85;101506.19;4996618;28;46899;-82
2022/04/10 01:43:28;;;;;;;;;27.00;25.67;;;;;4.94;64.95;101489.03;5010851;28;45324;-84
2022/04/10 01:45:54;;;;;;;;;25.33;24.00;;;;;5.11;64.83;101531.06;5010579;28;45169;-84
2022/04/10 01:48:19;;;;;;;;;23.00;22.75;;;;;5.19;64.91;101544.63;5009909;28;45256;-83
2022/04/10 01:50:45;;;;;;;;;27.33;24.33;;;;;4.78;64.48;101467.16;5009609;28;47425;-82
2022/04/10 01:53:10;;;;;;;;;31.00;27.00;;;;;5.00;65.01;101503.38;5009956;28;45142;-84
2022/04/10 01:55:35;;;;;;;;;24.33;23.33;;;;;4.89;64.54;101483.50;5010043;28;44951;-85
2022/04/10 01:58:01;;;;;;;;;28.00;24.00;;;;;5.00;64.48;101510.28;5010836;28;45374;-84
2022/04/10 02:00:26;;;;;;;;;20.50;20.50;;;;;4.72;64.73;101456.28;5009309;28;46014;-84
2022/04/10 02:02:51;;;;;;;;;25.50;23.25;;;;;4.90;64.90;101485.31;5009919;28;45264;-84
2022/04/10 02:05:17;;;;;;;;;28.75;26.75;;;;;4.83;64.88;101480.47;5010559;28;45039;-82
2022/04/10 02:07:42;;;;;;;;;25.75;24.00;;;;;4.95;64.73;101503.84;5009635;28;45067;-82
2022/04/10 02:10:08;;;;;;;;;21.00;20.33;;;;;4.81;64.96;101482.06;5010240;28;45884;-84
2022/04/10 02:12:33;;;;;;;;;26.25;25.00;;;;;4.81;64.88;101479.47;5009509;28;45024;-82
2022/04/10 02:14:59;;;;;;;;;24.25;23.75;;;;;4.70;64.98;101462.19;4992119;28;45362;-84
2022/04/10 02:17:25;;;;;;;;;25.50;25.25;;;;;4.89;64.76;101509.56;5009894;28;45151;-84
2022/04/10 02:19:50;;;;;;;;;24.50;23.25;;;;;4.98;64.60;101531.03;5008148;28;46107;-85
2022/04/10 02:22:15;;;;;;;;;28.00;25.33;;;;;4.90;64.90;101503.53;5011008;28;45010;-84
2022/04/10 02:24:41;;;;;;;;;27.00;27.00;;;;;4.98;64.71;101512.78;5009480;28;45215;-84
2022/04/10 02:27:06;;;;;;;;;28.00;24.33;;;;;4.96;64.96;101527.41;5010166;28;45316;-84
2022/04/10 02:29:31;;;;;;;;;24.00;23.33;;;;;4.73;64.89;101483.22;5009950;28;45333;-84
2022/04/10 02:31:57;;;;;;;;;26.00;25.33;;;;;4.99;64.88;101532.84;5009557;28;45101;-83
2022/04/10 02:34:23;;;;;;;;;25.50;24.25;;;;;4.81;65.07;101509.00;5009450;28;45185;-83
2022/04/10 02:36:49;;;;;;;;;26.00;24.50;;;;;4.91;64.77;101526.19;5007754;28;45129;-83
2022/04/10 02:39:14;;;;;;;;;25.00;23.50;;;;;4.88;64.79;101528.59;5009405;28;45268;-84
2022/04/10 02:41:39;;;;;;;;;23.50;22.00;;;;;4.73;65.08;101510.19;5008946;28;45484;-84
2022/04/10 02:44:05;;;;;;;;;23.00;22.50;;;;;4.47;65.25;101471.88;5025180;28;45079;-84
2022/04/10 02:46:30;;;;;;;;;24.00;23.25;;;;;4.65;65.31;101516.53;5009032;28;45445;-82
2022/04/10 02:48:56;;;;;;;;;25.33;23.67;;;;;4.79;65.40;101535.75;5008040;28;45803;-84
2022/04/10 02:51:21;;;;;;;;;24.00;22.33;;;;;4.57;65.36;101497.78;5006713;28;44948;-82
2022/04/10 02:53:46;;;;;;;;;24.00;23.00;;;;;4.47;65.21;101484.91;5007387;28;45135;-84
2022/04/10 02:56:12;;;;;;;;;22.75;20.75;;;;;4.69;65.29;101529.00;5009130;28;45067;-84
2022/04/10 02:58:37;;;;;;;;;26.00;24.75;;;;;4.72;65.53;101533.50;5009399;28;45660;-84
2022/04/10 03:01:02;;;;;;;;;27.00;24.33;;;;;4.30;65.15;101465.50;5009517;28;45073;-83
2022/04/10 03:03:28;;;;;;;;;23.67;21.00;;;;;4.23;65.51;101468.44;5008485;28;44991;-83
2022/04/10 03:05:53;;;;;;;;;25.67;22.67;;;;;4.40;65.54;101496.59;5008866;28;45054;-82
2022/04/10 03:08:20;;;;;;;;;21.75;21.75;;;;;4.29;65.35;101489.72;5009076;28;45963;-84
2022/04/10 03:10:46;;;;;;;;;25.00;23.75;;;;;4.55;65.66;101541.03;5023888;28;45654;-84
2022/04/10 03:13:11;;;;;;;;;21.00;21.00;;;;;4.45;65.94;101524.66;5008092;28;45697;-84
2022/04/10 03:15:36;;;;;;;;;24.67;23.67;;;;;4.55;65.55;101551.44;5008851;28;45439;-83
2022/04/10 03:18:02;;;;;;;;;22.75;22.00;;;;;4.24;65.87;101498.00;4991705;28;46222;-84
2022/04/10 03:20:28;;;;;;;;;27.75;23.50;;;;;4.23;65.74;101488.34;4990851;28;45323;-83
2022/04/10 03:22:53;;;;;;;;;22.75;18.50;;;;;4.41;65.64;101518.31;5009382;28;45260;-84
2022/04/10 03:25:18;;;;;;;;;25.75;24.25;;;;;4.59;65.76;101547.38;5007666;28;45031;-83
2022/04/10 03:27:44;;;;;;;;;23.33;22.67;;;;;4.37;65.60;101514.56;5008712;28;45562;-85
2022/04/10 03:30:11;;;;;;;;;19.00;19.00;;;;;4.52;65.75;101540.78;5007853;28;45500;-84
2022/04/10 03:32:37;;;;;;;;;24.75;23.00;;;;;4.40;65.37;101511.31;5009476;28;44929;-83
2022/04/10 03:35:02;;;;;;;;;24.00;22.75;;;;;4.55;65.35;101540.13;5008910;28;45141;-83
2022/04/10 03:37:28;;;;;;;;;28.00;23.00;;;;;4.34;65.59;101514.38;5008260;28;45836;-83
2022/04/10 03:39:53;;;;;;;;;20.00;18.67;;;;;4.48;65.23;101538.75;4994952;28;45348;-84
2022/04/10 03:42:18;;;;;;;;;25.00;23.67;;;;;4.18;65.45;101487.13;5009545;28;44993;-84
2022/04/10 03:44:44;;;;;;;;;22.67;20.33;;;;;4.53;65.43;101557.31;5008301;28;45157;-84
2022/04/10 03:47:09;;;;;;;;;18.00;16.00;;;;;4.15;65.42;101498.22;5007363;28;45982;-83
2022/04/10 03:49:34;;;;;;;;;19.00;19.00;;;;;4.40;65.49;101553.84;5008736;28;45120;-83
2022/04/10 03:52:00;;;;;;;;;19.75;18.00;;;;;4.13;65.42;101507.59;5007568;28;45432;-85
2022/04/10 03:54:25;;;;;;;;;21.50;20.00;;;;;4.26;65.48;101541.53;5007202;28;45325;-84
2022/04/10 03:56:50;;;;;;;;;25.75;24.00;;;;;4.18;65.70;101534.84;5008676;28;45441;-83
2022/04/10 03:59:16;;;;;;;;;21.67;21.67;;;;;4.11;65.59;101517.91;5008035;28;47329;-82
2022/04/10 04:01:41;;;;;;;;;21.67;19.33;;;;;3.96;65.27;101506.38;5009087;28;45104;-85
2022/04/10 04:04:06;;;;;;;;;26.33;23.00;;;;;4.14;65.69;101536.34;5011189;28;45007;-82
2022/04/10 04:06:32;;;;;;;;;23.75;21.50;;;;;3.89;65.76;101496.31;5012386;28;45502;-84
2022/04/10 04:08:57;;;;;;;;;26.33;23.67;;;;;3.77;65.87;101487.63;5012514;28;45506;-85
2022/04/10 04:11:22;;;;;;;;;25.33;21.33;;;;;3.76;66.14;101489.34;5012065;28;45192;-85
2022/04/10 04:13:48;;;;;;;;;24.00;20.00;;;;;3.76;66.17;101488.44;5011814;28;45263;-84
2022/04/10 04:16:13;;;;;;;;;21.00;21.00;;;;;3.81;66.27;101493.16;5009000;28;45777;-84
2022/04/10 04:18:38;;;;;;;;;22.50;19.25;;;;;3.87;66.37;101496.22;4992508;28;45083;-84
2022/04/10 04:21:04;;;;;;;;;18.00;16.33;;;;;3.70;66.06;101480.19;4992632;28;45312;-84
2022/04/10 04:23:29;;;;;;;;;13.50;11.25;;;;;3.90;66.21;101512.84;4992257;28;45150;-83
2022/04/10 04:25:54;;;;;;;;;21.33;19.67;;;;;3.90;66.11;101520.66;4974405;28;47212;-83
2022/04/10 04:28:20;;;;;;;;;21.33;20.67;;;;;3.73;66.02;101502.09;5004668;28;45510;-84
2022/04/10 04:30:46;;;;;;;;;19.75;19.00;;;;;3.86;66.21;101524.72;5012034;28;45010;-83
2022/04/10 04:33:11;;;;;;;;;21.75;21.00;;;;;3.72;66.36;101496.78;5009970;28;45816;-85
2022/04/10 04:35:37;;;;;;;;;22.50;21.50;;;;;4.04;66.33;101562.50;5009685;28;45468;-84
2022/04/10 04:38:02;;;;;;;;;13.75;13.50;;;;;4.06;66.30;101563.50;5012099;28;45077;-83
2022/04/10 04:40:28;;;;;;;;;20.50;19.50;;;;;3.82;66.21;101523.56;5009700;28;45376;-84
2022/04/10 04:42:53;;;;;;;;;21.75;19.25;;;;;3.77;66.08;101518.84;5012175;28;45276;-84
2022/04/10 04:45:19;;;;;;;;;19.50;18.50;;;;;3.90;66.15;101539.75;5011070;28;45393;-83
2022/04/10 04:47:45;;;;;;;;;21.00;18.50;;;;;3.95;66.30;101556.59;5011524;28;45186;-83
2022/04/10 04:50:10;;;;;;;;;24.75;18.00;;;;;3.83;66.22;101537.47;5008895;28;45350;-83
2022/04/10 04:52:36;;;;;;;;;22.50;20.50;;;;;3.65;66.27;101521.44;5010264;28;45246;-82
2022/04/10 04:55:01;;;;;;;;;18.00;18.00;;;;;3.71;66.36;101537.47;5009098;28;48336;-83
2022/04/10 04:57:26;;;;;;;;;18.33;18.00;;;;;3.72;66.25;101554.88;5011524;28;45100;-82
2022/04/10 04:59:52;;;;;;;;;23.33;21.67;;;;;3.81;66.23;101576.38;5011128;28;45287;-84
2022/04/10 05:02:17;;;;;;;;;15.00;14.75;;;;;3.74;66.13;101567.97;5011211;28;45274;-83
2022/04/10 05:04:43;;;;;;;;;19.25;17.75;;;;;3.68;66.38;101558.03;5009773;28;45869;-83
2022/04/10 05:07:08;;;;;;;;;17.00;16.00;;;;;3.81;66.16;101583.28;4987364;28;45267;-84
2022/04/10 05:09:34;;;;;;;;;19.50;17.00;;;;;3.67;66.24;101558.84;5010423;28;45217;-84
2022/04/10 05:11:59;;;;;;;;;18.50;17.50;;;;;3.64;66.63;101556.00;4993292;28;45297;-84
2022/04/10 05:14:24;;;;;;;;;19.25;17.75;;;;;3.67;66.51;101564.03;5010522;28;45083;-81
2022/04/10 05:16:50;;;;;;;;;18.00;15.25;;;;;3.66;66.57;101551.84;5011320;28;45095;-84
2022/04/10 05:19:15;;;;;;;;;20.33;19.33;;;;;3.69;66.37;101575.44;5011293;28;45244;-84
2022/04/10 05:21:40;;;;;;;;;18.50;16.00;;;;;3.69;66.63;101564.13;5010541;28;45517;-83
2022/04/10 05:24:06;;;;;;;;;20.33;18.33;;;;;3.78;66.50;101585.63;5008226;28;46144;-82
2022/04/10 05:26:31;;;;;;;;;22.00;21.25;;;;;3.77;66.55;101584.72;5010279;28;44974;-84
2022/04/10 05:28:57;;;;;;;;;23.67;21.00;;;;;3.64;66.68;101556.00;5010772;28;45266;-83
2022/04/10 05:31:22;;;;;;;;;17.00;15.33;;;;;3.77;66.76;101584.72;5004579;28;45240;-83
2022/04/10 05:33:47;;;;;;;;;22.75;19.00;;;;;3.56;66.58;101546.75;5010083;28;45769;-81
2022/04/10 05:36:13;;;;;;;;;23.00;21.00;;;;;3.61;66.63;101556.69;4986476;28;45370;-84
2022/04/10 05:38:38;;;;;;;;;21.25;20.25;;;;;3.78;66.74;101594.34;4998145;28;45426;-82
2022/04/10 05:41:03;;;;;;;;;20.00;19.67;;;;;3.86;66.71;101601.03;5022983;28;45190;-82
2022/04/10 05:43:30;;;;;;;;;23.00;19.33;;;;;3.73;66.86;101571.38;5007748;28;45750;-82
2022/04/10 05:45:56;;;;;;;;;19.00;19.00;;;;;3.86;66.85;101605.31;5008197;28;45582;-81
2022/04/10 05:48:21;;;;;;;;;19.25;18.50;;;;;3.65;66.74;101562.13;5009731;28;45164;-82
2022/04/10 05:50:47;;;;;;;;;20.00;19.50;;;;;3.83;66.69;101592.09;5008781;28;45228;-83
2022/04/10 05:53:12;;;;;;;;;19.25;18.75;;;;;3.72;66.70;101564.38;5009521;28;46130;-83
2022/04/10 05:55:38;;;;;;;;;18.00;18.00;;;;;4.08;66.78;101619.13;4990911;28;45196;-82
2022/04/10 05:58:04;;;;;;;;;17.25;16.75;;;;;3.93;66.59;101583.28;5000724;28;45575;-83
2022/04/10 06:00:29;;;;;;;;;21.75;21.00;;;;;4.12;66.57;101618.56;4993103;28;45383;-83
2022/04/10 06:02:55;;;;;;;;;19.00;18.00;;;;;4.22;66.33;101614.94;5007094;28;47160;-83
2022/04/10 06:05:21;;;;;;;;;20.00;18.25;;;;;4.30;66.39;101626.84;4996326;28;46413;-82
2022/04/10 06:07:46;;;;;;;;;18.25;17.50;;;;;4.19;66.51;101603.41;5010324;28;45176;-83
2022/04/10 06:10:13;;;;;;;;;20.00;18.75;;;;;4.38;66.53;101629.97;5000502;28;45399;-80
2022/04/10 06:12:38;;;;;;;;;16.00;14.25;;;;;4.43;66.45;101635.53;5006355;28;45350;-83
2022/04/10 06:15:04;;;;;;;;;15.00;13.50;;;;;4.38;65.91;101625.72;4992500;28;45050;-83
2022/04/10 06:17:30;;;;;;;;;15.25;15.00;;;;;4.42;66.15;101626.81;5009980;28;45117;-85
2022/04/10 06:19:56;;;;;;;;;14.50;13.75;;;;;4.51;66.24;101627.50;5009079;28;45271;-84
2022/04/10 06:22:23;;;;;;;;;19.75;18.25;;;;;4.39;66.19;101600.59;5008078;28;45834;-83
2022/04/10 06:24:50;;;;;;;;;18.75;17.25;;;;;4.43;66.54;101588.69;5006994;28;45511;-83
2022/04/10 06:27:15;;;;;;;;;17.75;14.75;;;;;4.53;66.20;101606.78;5003975;28;45390;-82
2022/04/10 06:29:40;;;;;;;;;16.25;15.00;;;;;4.40;65.85;101574.66;5006416;28;45140;-83
2022/04/10 06:32:06;;;;;;;;;20.00;19.50;;;;;4.59;65.99;101602.94;5009995;28;46127;-82
2022/04/10 06:34:31;;;;;;;;;18.00;16.75;;;;;4.66;66.03;101602.56;5009234;28;45005;-84
2022/04/10 06:36:57;;;;;;;;;20.00;19.25;;;;;4.67;66.05;101587.84;5009701;28;45172;-80
2022/04/10 06:39:22;;;;;;;;;18.00;17.67;;;;;4.79;66.43;101604.38;5009175;28;45298;-84
2022/04/10 06:41:47;;;;;;;;;19.00;18.00;;;;;5.03;66.32;101630.34;5008179;28;45900;-83
2022/04/10 06:44:13;;;;;;;;;22.75;20.75;;;;;4.94;66.24;101598.44;5003274;28;45553;-83
2022/04/10 06:46:38;;;;;;;;;16.50;15.00;;;;;5.02;66.13;101619.00;5003669;28;45424;-81
2022/04/10 06:49:03;;;;;;;;;11.50;11.50;;;;;4.87;66.14;101568.44;4997578;28;45741;-84
2022/04/10 06:51:29;;;;;;;;;21.50;19.00;;;;;5.30;65.99;101627.06;5007915;28;45311;-81
2022/04/10 06:53:54;;;;;;;;;23.25;21.25;;;;;5.31;65.84;101618.44;5002888;28;45771;-83
2022/04/10 06:56:20;;;;;;;;;19.67;18.67;;;;;5.40;65.63;101613.84;5007526;28;45375;-83
2022/04/10 06:58:45;;;;;;;;;19.75;19.25;;;;;5.25;65.42;101581.53;5006650;28;45552;-82
2022/04/10 07:01:11;;;;;;;;;23.25;22.00;;;;;5.60;65.58;101633.47;5005325;28;45337;-84
2022/04/10 07:03:36;;;;;;;;;24.50;22.00;;;;;5.45;65.69;101593.31;5008391;28;44989;-83
2022/04/10 07:06:02;;;;;;;;;20.50;19.25;;;;;5.68;65.46;101619.28;5007777;28;45192;-83
2022/04/10 07:08:27;;;;;;;;;19.50;19.25;;;;;5.65;65.22;101603.41;5003748;28;45119;-84
2022/04/10 07:10:53;;;;;;;;;22.00;22.00;;;;;5.66;65.14;101586.97;5008452;28;45289;-84
2022/04/10 07:13:20;;;;;;;;;23.50;21.25;;;;;5.73;65.45;101580.47;5008095;28;45456;-84
2022/04/10 07:15:47;;;;;;;;;19.25;18.25;;;;;6.09;65.77;101626.41;5005888;28;45010;-86
2022/04/10 07:18:13;;;;;;;;;21.00;20.00;;;;;5.96;66.17;101587.25;5008167;28;45361;-84
2022/04/10 07:20:39;;;;;;;;;19.50;18.50;;;;;5.90;65.34;101566.81;5008540;28;45420;-85
2022/04/10 07:25:48;;;;;;;;;29.50;25.00;;;;;6.44;65.05;101625.19;5008852;28;45197;-84
2022/04/10 07:28:18;;;;;;;;;29.75;29.00;;;;;6.15;65.36;101558.94;5008094;28;45369;-83
2022/04/10 07:30:44;;;;;;;;;26.25;25.75;;;;;6.55;65.77;101607.59;5008600;28;45540;-80
2022/04/10 07:33:09;;;;;;;;;30.00;29.50;;;;;6.47;65.43;101573.19;5011595;28;45321;-82
2022/04/10 07:35:35;;;;;;;;;30.50;29.25;;;;;6.52;65.16;101561.31;5009014;28;45306;-83
2022/04/10 07:38:01;;;;;;;;;34.75;30.25;;;;;6.78;65.28;101598.63;5010748;28;45530;-82
2022/04/10 07:40:26;;;;;;;;;28.00;26.75;;;;;7.09;65.30;101627.59;5011817;28;45435;-82
2022/04/10 07:42:52;;;;;;;;;33.50;30.00;;;;;6.96;65.04;101592.88;5011819;28;45276;-86
2022/04/10 07:48:02;;;;;;;;;33.75;28.75;;;;;7.03;64.33;101573.22;5011866;28;45070;-82
2022/04/10 07:50:31;;;;;;;;;32.00;29.25;;;;;7.36;64.83;101625.81;5009372;28;46074;-81
2022/04/10 07:52:56;;;;;;;;;26.25;24.25;;;;;7.38;64.23;101608.47;5010264;28;45658;-82
2022/04/10 07:55:22;;;;;;;;;23.50;22.00;;;;;7.60;64.44;101631.63;5010924;28;45091;-79
2022/04/10 07:57:48;;;;;;;;;22.25;17.00;;;;;7.66;64.28;101627.66;4992959;28;45583;-82
2022/04/10 08:00:14;;;;;;;;;22.75;20.75;;;;;7.55;63.94;101592.13;5005405;28;45760;-82
2022/04/10 08:02:39;;;;;;;;;13.25;13.25;;;;;7.63;63.69;101589.94;5011171;28;45125;-83
2022/04/10 08:05:05;;;;;;;;;11.50;9.00;;;;;7.85;62.73;101616.59;5009441;28;45390;-83
2022/04/10 08:07:30;;;;;;;;;14.25;13.00;;;;;7.81;62.56;101601.50;5002946;28;45111;-80
2022/04/10 08:09:56;;;;;;;;;20.00;19.00;;;;;7.89;62.52;101608.13;5006792;28;45251;-83
2022/04/10 08:12:21;;;;;;;;;22.67;22.00;;;;;7.88;62.43;101589.69;5010992;28;45284;-82
2022/04/10 08:14:48;;;;;;;;;24.33;23.33;;;;;7.84;62.36;101572.03;5009367;28;45333;-83
2022/04/10 08:17:13;;;;;;;;;22.50;19.50;;;;;8.19;62.58;101621.19;5024072;28;45428;-82
2022/04/10 08:19:39;;;;;;;;;19.00;18.25;;;;;8.23;62.33;101616.22;5006536;28;45582;-84
2022/04/10 08:22:04;;;;;;;;;16.25;14.50;;;;;8.20;61.96;101600.31;5011626;28;45066;-84
2022/04/10 08:24:30;;;;;;;;;13.25;12.25;;;;;8.34;62.37;101611.59;5006830;28;45661;-83
2022/04/10 08:26:56;;;;;;;;;17.50;16.50;;;;;8.32;61.92;101597.50;5009179;28;45189;-81
2022/04/10 08:29:21;;;;;;;;;17.25;14.75;;;;;8.37;61.76;101609.16;5009111;28;45669;-84
2022/04/10 08:31:47;;;;;;;;;15.50;14.50;;;;;8.39;61.92;101593.56;5009364;28;45124;-82
2022/04/10 08:34:13;;;;;;;;;14.75;13.75;;;;;8.57;61.12;101617.25;4989985;28;45034;-82
2022/04/10 08:36:39;;;;;;;;;10.50;9.25;;;;;8.33;60.47;101572.25;5004515;28;45276;-83
2022/04/10 08:39:05;;;;;;;;;10.25;10.25;;;;;8.64;60.22;101615.09;5004120;28;45507;-83
2022/04/10 08:41:33;;;;;;;;;9.00;8.00;;;;;8.75;60.24;101619.19;4987649;28;45189;-83
2022/04/10 08:44:03;;;;;;;;;8.25;8.25;;;;;8.41;60.52;101550.91;4990015;28;45419;-84
2022/04/10 08:46:29;;;;;;;;;8.00;8.00;;;;;8.82;60.50;101604.75;5009883;28;45180;-83
2022/04/10 08:48:57;;;;;;;;;8.00;8.00;;;;;8.32;60.43;101516.31;5008203;28;45606;-83
2022/04/10 08:51:24;;;;;;;;;3.00;2.50;;;;;8.98;59.75;101615.25;5010790;28;45303;-82
2022/04/10 08:53:53;;;;;;;;;7.50;7.50;;;;;8.88;59.68;101593.69;4995534;28;45532;-81
2022/04/10 08:56:18;;;;;;;;;12.50;12.00;;;;;9.11;59.40;101618.50;4988437;28;45405;-81
2022/04/10 08:58:43;;;;;;;;;10.50;10.00;;;;;8.95;59.99;101585.31;5010264;28;46233;-82
2022/04/10 09:01:11;;;;;;;;;20.00;18.50;;;;;9.12;59.71;101608.13;5009357;28;45350;-83
2022/04/10 09:03:37;;;;;;;;;17.25;17.00;;;;;9.17;59.90;101611.91;5009681;28;45154;-83
2022/04/10 09:06:09;;;;;;;;;15.75;15.25;;;;;9.30;59.25;101621.31;5008538;28;45247;-83
2022/04/10 09:08:35;;;;;;;;;16.25;16.25;;;;;9.17;59.85;101596.16;5010383;28;45307;-81
2022/04/10 09:11:01;;;;;;;;;20.00;17.25;;;;;9.41;59.49;101624.50;5007412;28;45270;-82
2022/04/10 09:13:29;;;;;;;;;18.50;16.00;;;;;9.45;58.90;101619.50;5008512;28;45303;-83
2022/04/10 09:16:02;;;;;;;;;20.75;20.50;;;;;9.50;58.73;101625.00;5007524;28;45118;-82
2022/04/10 09:18:28;;;;;;;;;20.75;20.75;;;;;9.49;59.35;101605.72;5008836;28;46134;-83
2022/04/10 09:21:07;;;;;;;;;21.75;19.25;;;;;9.39;59.72;101573.69;5006626;28;45783;-82
2022/04/10 09:23:34;;;;;;;;;21.75;21.75;;;;;9.61;58.75;101604.59;4998362;28;45500;-82
2022/04/10 09:25:59;;;;;;;;;20.00;19.50;;;;;9.61;58.58;101604.59;4995424;28;45476;-83
2022/04/10 09:28:40;;;;;;;;;20.25;17.00;;;;;9.81;59.08;101622.28;5004130;28;45803;-81
2022/04/10 09:31:32;;;;;;;;;19.75;19.50;;;;;9.83;58.10;101610.13;4997022;28;45577;-80
2022/04/10 09:34:02;;;;;;;;;20.00;19.50;;;;;9.75;57.57;101586.13;4998814;28;45015;-84
2022/04/10 09:36:44;;;;;;;;;17.50;17.00;;;;;9.98;58.08;101612.63;4995782;28;45524;-83
2022/04/10 09:39:09;;;;;;;;;16.75;16.75;;;;;10.06;57.64;101614.81;5001881;28;45817;-83
2022/04/10 09:41:35;;;;;;;;;21.00;18.33;;;;;10.04;57.36;101603.31;5009728;28;45137;-83
2022/04/10 09:44:16;;;;;;;;;15.50;15.25;;;;;10.05;57.00;101593.75;5003979;28;45374;-82
2022/04/10 09:46:42;;;;;;;;;17.50;16.25;;;;;10.05;57.55;101583.25;4993182;28;45213;-82
2022/04/10 09:49:13;;;;;;;;;17.00;16.00;;;;;10.08;57.44;101575.50;4996974;28;45960;-84
2022/04/10 09:52:11;;;;;;;;;18.50;16.75;;;;;10.17;57.89;101577.69;5005676;28;45675;-82
2022/04/10 09:54:40;;;;;;;;;18.75;16.25;;;;;10.43;57.78;101602.63;5008677;28;45054;-83
2022/04/10 09:57:16;;;;;;;;;17.00;16.50;;;;;10.19;57.79;101548.03;5006528;28;45694;-83
2022/04/10 09:59:43;;;;;;;;;11.50;10.75;;;;;10.59;56.67;101599.94;4996493;28;46765;-84
2022/04/10 10:02:14;;;;;;;;;13.50;11.75;;;;;10.67;56.07;101593.31;4990525;28;45882;-83
2022/04/10 10:04:41;;;;;;;;;10.75;10.75;;;;;10.73;54.97;101590.06;4988108;28;45669;-83
2022/04/10 10:07:14;;;;;;;;;10.50;9.50;;;;;10.53;55.31;101550.59;4979959;28;45422;-81
2022/04/10 10:09:40;;;;;;;;;10.00;10.00;;;;;10.66;55.60;101565.22;4988362;28;45823;-83
2022/04/10 10:12:07;;;;;;;;;9.00;9.00;;;;;10.67;54.42;101552.97;5000299;28;45138;-81
2022/04/10 10:14:34;;;;;;;;;10.00;9.25;;;;;10.85;53.62;101582.75;5002016;28;45149;-81
2022/04/10 10:17:01;;;;;;;;;8.75;8.50;;;;;10.60;53.74;101538.66;4999846;28;45648;-84
2022/04/10 10:19:34;;;;;;;;;8.50;8.25;;;;;10.77;54.46;101571.88;4999243;28;45901;-84
2022/04/10 10:22:01;;;;;;;;;7.50;7.50;;;;;10.69;54.47;101538.16;4987790;28;45580;-83
2022/04/10 10:24:33;;;;;;;;;9.00;8.50;;;;;10.75;53.44;101539.38;4998498;28;45441;-83
2022/04/10 10:27:24;;;;;;;;;11.00;9.75;;;;;10.95;54.19;101555.16;5010894;28;45216;-81
2022/04/10 10:30:18;;;;;;;;;9.00;9.00;;;;;11.25;54.00;101576.69;4989088;28;46038;-82
2022/04/10 10:32:46;;;;;;;;;10.50;9.75;;;;;10.62;53.79;101458.13;5006824;28;45801;-82
2022/04/10 10:35:34;;;;;;;;;10.00;9.50;;;;;11.40;53.96;101574.75;5004070;28;45144;-84
2022/04/10 10:38:02;;;;;;;;;8.50;8.50;;;;;11.24;53.13;101512.66;5007671;28;45158;-83
2022/04/10 10:40:28;;;;;;;;;9.00;9.00;;;;;11.39;53.29;101515.06;5012271;28;46273;-83
2022/04/10 10:42:58;;;;;;;;;10.25;9.75;;;;;11.75;52.74;101554.31;5011176;28;45398;-82
2022/04/10 10:45:37;;;;;;;;;9.50;9.25;;;;;11.76;51.72;101543.84;5006958;28;45466;-85
2022/04/10 10:48:23;;;;;;;;;10.75;10.00;;;;;11.98;52.26;101557.97;5004483;28;45056;-84
2022/04/10 10:50:50;;;;;;;;;10.00;8.75;;;;;12.02;53.11;101546.69;5002254;28;45472;-81
2022/04/10 10:53:17;;;;;;;;;10.50;10.25;;;;;12.20;51.90;101539.56;5010419;28;45239;-82
2022/04/10 10:55:44;;;;;;;;;9.00;9.00;;;;;12.34;52.40;101529.59;5001378;28;45645;-80
2022/04/10 10:58:30;;;;;;;;;11.25;11.25;;;;;12.60;51.45;101563.13;5001814;28;45334;-83
2022/04/10 11:01:02;;;;;;;;;13.25;12.25;;;;;12.68;49.88;101554.66;5003184;28;45337;-82
2022/04/10 11:03:29;;;;;;;;;12.75;12.00;;;;;12.64;49.43;101550.97;5007716;28;46094;-79
2022/04/10 11:06:05;;;;;;;;;9.00;9.00;;;;;12.54;50.71;101522.44;5006671;28;45277;-82
2022/04/10 11:08:39;;;;;;;;;12.50;12.25;;;;;12.44;50.78;101494.81;5005297;28;45107;-83
2022/04/10 11:11:05;;;;;;;;;15.00;14.50;;;;;12.38;51.05;101463.84;5008175;28;46231;-80
2022/04/10 11:13:42;;;;;;;;;13.00;13.00;;;;;12.87;51.16;101536.94;5002350;28;45219;-83
2022/04/10 11:16:13;;;;;;;;;13.75;13.00;;;;;12.75;49.98;101506.56;4978658;28;45771;-82
2022/04/10 11:18:43;;;;;;;;;12.25;12.00;;;;;12.97;49.15;101524.09;4989975;28;45218;-83
2022/04/10 11:21:15;;;;;;;;;12.75;12.25;;;;;12.82;49.26;101485.75;4991875;28;46548;-82